createdAt,value
2022-10-09T00:01:50.331Z,1008.80
2022-10-09T00:06:50.271Z,1008.78
2022-10-09T00:11:50.198Z,1008.77
2022-10-09T00:16:50.222Z,1008.80
2022-10-09T00:21:50.064Z,1008.81
2022-10-09T00:26:50.004Z,1008.82
2022-10-09T00:31:49.930Z,1008.78
2022-10-09T00:36:49.871Z,1008.86
2022-10-09T00:41:49.797Z,1008.87
2022-10-09T00:46:49.748Z,1008.89
2022-10-09T00:51:49.663Z,1008.90
2022-10-09T00:56:49.617Z,1008.90
2022-10-09T01:01:49.643Z,1008.91
2022-10-09T01:06:49.482Z,1008.89
2022-10-09T01:11:49.396Z,1008.87
2022-10-09T01:16:49.348Z,1008.85
2022-10-09T01:21:49.263Z,1008.85
2022-10-09T01:26:49.203Z,1008.88
2022-10-09T01:31:49.128Z,1008.85
2022-10-09T01:36:49.070Z,1008.87
2022-10-09T01:41:48.997Z,1008.92
2022-10-09T01:46:48.936Z,1008.96
2022-10-09T01:51:48.863Z,1008.96
2022-10-09T01:56:48.803Z,1008.95
2022-10-09T02:01:48.840Z,1008.95
2022-10-09T02:06:48.670Z,1008.97
2022-10-09T02:11:48.597Z,1009.01
2022-10-09T02:16:48.537Z,1009.01
2022-10-09T02:21:52.462Z,1009.04
2022-10-09T02:26:48.404Z,1009.00
2022-10-09T02:31:48.331Z,1009.00
2022-10-09T02:36:48.272Z,1009.04
2022-10-09T02:41:48.197Z,1009.07
2022-10-09T02:46:48.195Z,1009.07
2022-10-09T02:51:48.073Z,1009.12
2022-10-09T02:56:48.014Z,1009.14
2022-10-09T03:01:48.064Z,1009.15
2022-10-09T03:06:47.882Z,1009.24
2022-10-09T03:11:47.800Z,1009.22
2022-10-09T03:16:47.751Z,1009.23
2022-10-09T03:21:47.666Z,1009.26
2022-10-09T03:26:47.606Z,1009.27
2022-10-09T03:31:52.215Z,1009.28
2022-10-09T03:36:47.464Z,1009.29
2022-10-09T03:41:47.389Z,1009.29
2022-10-09T03:46:47.369Z,1009.38
2022-10-09T03:51:47.260Z,1009.37
2022-10-09T03:56:47.197Z,1009.35
2022-10-09T04:01:47.135Z,1009.37
2022-10-09T04:06:47.065Z,1009.36
2022-10-09T04:11:47.001Z,1009.33
2022-10-09T04:16:47.023Z,1009.32
2022-10-09T04:21:46.870Z,1009.38
2022-10-09T04:26:46.799Z,1009.49
2022-10-09T04:31:46.761Z,1009.53
2022-10-09T04:36:46.665Z,1009.53
2022-10-09T04:41:46.590Z,1009.54
2022-10-09T04:46:46.542Z,1009.46
2022-10-09T04:51:46.455Z,1009.48
2022-10-09T04:56:46.406Z,1009.46
2022-10-09T05:01:46.492Z,1009.49
2022-10-09T05:06:46.272Z,1009.52
2022-10-09T05:11:46.186Z,1009.54
2022-10-09T05:17:08.793Z,1009.50
2022-10-09T05:21:47.080Z,1009.54
2022-10-09T05:26:45.992Z,1009.55
2022-10-09T05:31:49.489Z,1009.57
2022-10-09T05:36:45.859Z,1009.59
2022-10-09T05:41:45.781Z,1009.57
2022-10-09T05:46:45.722Z,1009.57
2022-10-09T05:51:45.647Z,1009.62
2022-10-09T05:56:45.593Z,1009.66
2022-10-09T06:01:45.568Z,1009.61
2022-10-09T06:06:45.462Z,1009.66
2022-10-09T06:11:45.379Z,1009.73
2022-10-09T06:16:45.419Z,1009.71
2022-10-09T06:21:45.246Z,1009.76
2022-10-09T06:26:45.195Z,1009.81
2022-10-09T06:31:45.118Z,1009.84
2022-10-09T06:36:45.061Z,1009.84
2022-10-09T06:41:44.977Z,1009.90
2022-10-09T06:46:44.917Z,1009.85
2022-10-09T06:51:44.846Z,1009.90
2022-10-09T06:56:44.797Z,1009.94
2022-10-09T07:01:44.799Z,1009.96
2022-10-09T07:06:44.652Z,1009.99
2022-10-09T07:11:44.583Z,1010.03
2022-10-09T07:16:44.520Z,1010.03
2022-10-09T07:21:44.451Z,1010.07
2022-10-09T07:26:44.377Z,1010.08
2022-10-09T07:31:44.320Z,1010.06
2022-10-09T07:36:44.243Z,1010.11
2022-10-09T07:41:44.184Z,1010.16
2022-10-09T07:46:44.212Z,1010.18
2022-10-09T07:51:44.051Z,1010.14
2022-10-09T07:56:43.975Z,1010.08
2022-10-09T08:01:43.937Z,1010.07
2022-10-09T08:06:43.851Z,1010.10
2022-10-09T08:11:43.782Z,1010.13
2022-10-09T08:16:43.719Z,1010.11
2022-10-09T08:21:43.652Z,1010.05
2022-10-09T08:26:43.585Z,1009.97
2022-10-09T08:31:43.516Z,1010.01
2022-10-09T08:36:43.454Z,1010.09
2022-10-09T08:41:43.391Z,1010.15
2022-10-09T08:46:43.388Z,1010.11
2022-10-09T08:51:43.252Z,1010.05
2022-10-09T08:56:43.182Z,1010.04
2022-10-09T09:01:43.194Z,1010.09
2022-10-09T09:06:43.049Z,1010.01
2022-10-09T09:11:42.993Z,1010.04
2022-10-09T09:16:42.920Z,1010.05
2022-10-09T09:21:42.865Z,1010.01
2022-10-09T09:26:42.803Z,1009.98
2022-10-09T09:31:42.797Z,1009.90
2022-10-09T09:36:42.682Z,1009.89
2022-10-09T09:41:42.608Z,1009.87
2022-10-09T09:46:42.631Z,1009.76
2022-10-09T09:51:42.481Z,1009.71
2022-10-09T09:57:10.493Z,1009.61
2022-10-09T10:01:43.438Z,1009.60
2022-10-09T10:06:42.281Z,1009.57
2022-10-09T10:11:42.236Z,1009.53
2022-10-09T10:16:42.157Z,1009.49
2022-10-09T10:21:42.106Z,1009.38
2022-10-09T10:26:42.023Z,1009.35
2022-10-09T10:31:42.076Z,1009.31
2022-10-09T10:36:41.892Z,1009.26
2022-10-09T10:41:41.835Z,1009.14
2022-10-09T10:46:41.789Z,1009.14
2022-10-09T10:51:41.702Z,1009.15
2022-10-09T10:56:41.628Z,1009.08
2022-10-09T11:01:41.572Z,1009.01
2022-10-09T11:06:41.498Z,1009.03
2022-10-09T11:11:41.439Z,1008.93
2022-10-09T11:16:41.436Z,1008.83
2022-10-09T11:21:41.319Z,1008.77
2022-10-09T11:26:41.232Z,1008.69
2022-10-09T11:31:41.252Z,1008.59
2022-10-09T11:36:41.097Z,1008.64
2022-10-09T11:41:41.052Z,1008.51
2022-10-09T11:46:40.965Z,1008.44
2022-10-09T11:51:40.918Z,1008.40
2022-10-09T11:56:40.836Z,1008.29
2022-10-09T12:01:40.880Z,1008.23
2022-10-09T12:06:40.700Z,1008.19
2022-10-09T12:11:40.641Z,1008.02
2022-10-09T12:16:40.616Z,1007.94
2022-10-09T12:21:40.506Z,1007.84
2022-10-09T12:26:40.432Z,1007.78
2022-10-09T12:31:40.371Z,1007.77
2022-10-09T12:36:40.299Z,1007.69
2022-10-09T12:41:40.245Z,1007.66
2022-10-09T12:46:40.166Z,1007.56
2022-10-09T12:51:40.108Z,1007.53
2022-10-09T12:56:40.030Z,1007.44
2022-10-09T13:01:40.125Z,1007.42
2022-10-09T13:06:39.900Z,1007.38
2022-10-09T13:11:39.838Z,1007.30
2022-10-09T13:16:39.842Z,1007.19
2022-10-09T13:21:39.768Z,1007.16
2022-10-09T13:26:39.783Z,1007.15
2022-10-09T13:31:39.837Z,1007.03
2022-10-09T13:36:39.502Z,1007.09
2022-10-09T13:41:39.451Z,1007.01
2022-10-09T13:46:39.374Z,1006.95
2022-10-09T13:51:39.316Z,1006.86
2022-10-09T13:56:39.231Z,1006.75
2022-10-09T14:01:39.221Z,1006.70
2022-10-09T14:06:39.095Z,1006.65
2022-10-09T14:11:39.097Z,1006.66
2022-10-09T14:16:38.962Z,1006.60
2022-10-09T14:21:38.910Z,1006.55
2022-10-09T14:26:38.827Z,1006.55
2022-10-09T14:31:38.766Z,1006.49
2022-10-09T14:36:38.691Z,1006.44
2022-10-09T14:41:38.642Z,1006.36
2022-10-09T14:46:38.554Z,1006.40
2022-10-09T14:51:38.503Z,1006.26
2022-10-09T14:56:38.417Z,1006.21
2022-10-09T15:01:38.369Z,1006.13
2022-10-09T15:06:38.282Z,1006.07
2022-10-09T15:11:38.231Z,1006.07
2022-10-09T15:16:38.146Z,1006.03
2022-10-09T15:21:38.085Z,1006.01
2022-10-09T15:26:38.020Z,1005.92
2022-10-09T15:31:37.951Z,1005.90
2022-10-09T15:36:37.885Z,1005.82
2022-10-09T15:41:37.816Z,1005.70
2022-10-09T15:46:37.748Z,1005.59
2022-10-09T15:51:37.682Z,1005.52
2022-10-09T15:56:40.090Z,1005.48
2022-10-09T16:01:37.603Z,1005.42
2022-10-09T16:06:37.466Z,1005.42
2022-10-09T16:11:37.411Z,1005.38
2022-10-09T16:16:37.332Z,1005.34
2022-10-09T16:21:37.271Z,1005.34
2022-10-09T16:26:37.195Z,1005.33
2022-10-09T16:31:37.137Z,1005.28
2022-10-09T16:36:37.057Z,1005.29
2022-10-09T16:41:41.704Z,1005.29
2022-10-09T16:46:36.932Z,1005.28
2022-10-09T16:51:36.861Z,1005.37
2022-10-09T16:56:36.795Z,1005.34
2022-10-09T17:01:36.725Z,1005.32
2022-10-09T17:06:36.662Z,1005.35
2022-10-09T17:11:36.590Z,1005.34
2022-10-09T17:16:36.528Z,1005.30
2022-10-09T17:21:36.459Z,1005.24
2022-10-09T17:26:36.390Z,1005.21
2022-10-09T17:31:36.339Z,1005.21
2022-10-09T17:36:36.258Z,1005.19
2022-10-09T17:41:36.208Z,1005.19
2022-10-09T17:46:36.130Z,1005.15
2022-10-09T17:51:36.070Z,1005.17
2022-10-09T17:56:35.996Z,1005.12
2022-10-09T18:01:35.978Z,1005.05
2022-10-09T18:06:35.876Z,1005.03
2022-10-09T18:11:35.807Z,1005.03
2022-10-09T18:16:36.681Z,1005.03
2022-10-09T18:21:35.687Z,1005.01
2022-10-09T18:26:35.609Z,1005.00
2022-10-09T18:31:35.543Z,1004.95
2022-10-09T18:36:35.474Z,1004.92
2022-10-09T18:41:35.404Z,1004.96
2022-10-09T18:46:35.330Z,1004.95
2022-10-09T18:51:35.270Z,1004.91
2022-10-09T18:56:35.194Z,1004.94
2022-10-09T19:01:35.195Z,1004.92
2022-10-09T19:06:35.064Z,1004.88
2022-10-09T19:11:35.003Z,1004.81
2022-10-09T19:16:34.932Z,1004.74
2022-10-09T19:21:34.871Z,1004.68
2022-10-09T19:26:34.807Z,1004.72
2022-10-09T19:31:34.738Z,1004.69
2022-10-09T19:36:34.673Z,1004.64
2022-10-09T19:41:34.604Z,1004.52
2022-10-09T19:46:34.541Z,1004.48
2022-10-09T19:51:34.471Z,1004.50
2022-10-09T19:56:34.407Z,1004.46
2022-10-09T20:01:34.379Z,1004.36
2022-10-09T20:06:34.267Z,1004.40
2022-10-09T20:11:34.204Z,1004.32
2022-10-09T20:16:34.129Z,1004.33
2022-10-09T20:21:34.070Z,1004.26
2022-10-09T20:26:33.996Z,1004.29
2022-10-09T20:31:33.940Z,1004.31
2022-10-09T20:36:33.863Z,1004.35
2022-10-09T20:41:33.803Z,1004.28
2022-10-09T20:46:33.728Z,1004.23
2022-10-09T20:51:33.666Z,1004.23
2022-10-09T20:56:33.594Z,1004.15
2022-10-09T21:01:33.613Z,1004.14
2022-10-09T21:06:33.458Z,1004.11
2022-10-09T21:11:33.409Z,1004.16
2022-10-09T21:16:33.324Z,1004.17
2022-10-09T21:21:33.273Z,1004.11
2022-10-09T21:26:33.191Z,1004.04
2022-10-09T21:31:33.142Z,1003.98
2022-10-09T21:36:33.058Z,1004.05
2022-10-09T21:41:33.011Z,1004.03
2022-10-09T21:46:32.924Z,1003.96
2022-10-09T21:51:32.875Z,1003.92
2022-10-09T21:56:32.859Z,1003.84
2022-10-09T22:01:32.771Z,1003.74
2022-10-09T22:06:32.657Z,1003.71
2022-10-09T22:11:32.595Z,1003.64
2022-10-09T22:16:32.575Z,1003.55
2022-10-09T22:21:32.469Z,1003.50
2022-10-09T22:26:32.393Z,1003.47
2022-10-09T22:31:32.334Z,1003.37
2022-10-09T22:36:32.260Z,1003.35
2022-10-09T22:41:32.212Z,1003.34
2022-10-09T22:46:32.129Z,1003.35
2022-10-09T22:51:32.081Z,1003.30
2022-10-09T22:56:31.997Z,1003.25
2022-10-09T23:01:32.026Z,1003.22
2022-10-09T23:06:31.864Z,1003.15
2022-10-09T23:11:31.816Z,1003.19
2022-10-09T23:16:31.733Z,1003.13
2022-10-09T23:21:31.681Z,1003.13
2022-10-09T23:26:31.598Z,1003.12
2022-10-09T23:31:31.565Z,1003.11
2022-10-09T23:36:31.464Z,1003.03
2022-10-09T23:41:31.413Z,1002.94
2022-10-09T23:46:31.330Z,1003.03
2022-10-09T23:51:31.291Z,1003.00
2022-10-09T23:56:31.198Z,1002.95
